createdAt,value
2023-06-29T00:02:20.719Z,96460.91
2023-06-29T00:04:50.611Z,96458.22
2023-06-29T00:07:19.454Z,96454.94
2023-06-29T00:09:48.073Z,96459.44
2023-06-29T00:12:16.553Z,96461.53
2023-06-29T00:14:44.888Z,96465.25
2023-06-29T00:17:16.306Z,96454.34
2023-06-29T00:19:48.861Z,96457.47
2023-06-29T00:22:18.227Z,96458.91
2023-06-29T00:24:56.876Z,96447.81
2023-06-29T00:27:25.739Z,96460.38
2023-06-29T00:29:54.384Z,96456.66
2023-06-29T00:32:24.138Z,96447.41
2023-06-29T00:34:52.528Z,96452.53
2023-06-29T00:37:20.918Z,96450.91
2023-06-29T00:39:51.648Z,96448.63
2023-06-29T00:42:20.265Z,96443.88
2023-06-29T00:44:49.479Z,96442.25
2023-06-29T00:47:18.061Z,96444.31
2023-06-29T00:49:47.907Z,96449.66
2023-06-29T00:52:17.848Z,96449.47
2023-06-29T00:54:46.495Z,96452.59
2023-06-29T00:57:15.025Z,96444.75
2023-06-29T00:59:43.684Z,96437.53
2023-06-29T01:02:12.128Z,96442.91
2023-06-29T01:04:41.987Z,96440.88
2023-06-29T01:07:16.274Z,96440.66
2023-06-29T01:09:46.931Z,96428.94
2023-06-29T01:12:17.499Z,96432.47
2023-06-29T01:14:47.348Z,96421.38
2023-06-29T01:17:20.646Z,96429.59
2023-06-29T01:19:51.838Z,96426.75
2023-06-29T01:22:23.675Z,96426.13
2023-06-29T01:24:54.003Z,96426.75
2023-06-29T01:27:22.711Z,96425.50
2023-06-29T01:29:56.670Z,96424.88
2023-06-29T01:32:27.411Z,96423.47
2023-06-29T01:34:56.166Z,96423.88
2023-06-29T01:37:30.319Z,96411.50
2023-06-29T01:40:03.583Z,96415.84
2023-06-29T01:42:34.216Z,96412.97
2023-06-29T01:45:04.289Z,96416.03
2023-06-29T01:47:33.520Z,96412.75
2023-06-29T01:50:02.447Z,96411.53
2023-06-29T01:52:30.994Z,96409.06
2023-06-29T01:55:00.832Z,96412.38
2023-06-29T01:57:29.238Z,96410.97
2023-06-29T01:59:57.698Z,96411.34
2023-06-29T02:02:26.195Z,96409.09
2023-06-29T02:04:54.671Z,96409.72
2023-06-29T02:07:23.157Z,96407.69
2023-06-29T02:09:52.555Z,96405.03
2023-06-29T02:12:22.277Z,96402.13
2023-06-29T02:14:50.692Z,96402.97
2023-06-29T02:17:19.273Z,96406.44
2023-06-29T02:19:47.646Z,96404.59
2023-06-29T02:22:16.158Z,96404.16
2023-06-29T02:24:44.505Z,96399.66
2023-06-29T02:27:12.945Z,96398.84
2023-06-29T02:29:42.785Z,96408.50
2023-06-29T02:32:12.466Z,96401.09
2023-06-29T02:34:40.843Z,96395.97
2023-06-29T02:37:09.279Z,96389.78
2023-06-29T02:39:37.700Z,96397.81
2023-06-29T02:42:06.399Z,96395.75
2023-06-29T02:44:34.806Z,96392.47
2023-06-29T02:47:04.713Z,96392.28
2023-06-29T02:49:33.105Z,96391.81
2023-06-29T02:52:01.584Z,96388.16
2023-06-29T02:54:29.928Z,96386.47
2023-06-29T02:56:58.331Z,96389.16
2023-06-29T02:59:26.767Z,96384.63
2023-06-29T03:01:56.213Z,96387.13
2023-06-29T03:04:25.943Z,96389.19
2023-06-29T03:06:54.430Z,96384.84
2023-06-29T03:09:22.883Z,96381.16
2023-06-29T03:11:51.334Z,96376.22
2023-06-29T03:14:19.770Z,96382.38
2023-06-29T03:16:48.202Z,96381.16
2023-06-29T03:19:16.614Z,96380.13
2023-06-29T03:21:46.368Z,96379.13
2023-06-29T03:24:14.714Z,96379.50
2023-06-29T03:26:43.072Z,96378.28
2023-06-29T03:29:11.556Z,96376.25
2023-06-29T03:31:39.899Z,96379.94
2023-06-29T03:34:08.255Z,96379.94
2023-06-29T03:36:36.628Z,96383.00
2023-06-29T03:39:06.428Z,96379.09
2023-06-29T03:41:34.819Z,96379.94
2023-06-29T03:44:03.265Z,96375.19
2023-06-29T03:46:31.660Z,96377.06
2023-06-29T03:49:00.068Z,96367.59
2023-06-29T03:51:28.577Z,96377.25
2023-06-29T03:53:56.925Z,96375.81
2023-06-29T03:56:26.868Z,96375.00
2023-06-29T03:58:55.378Z,96376.00
2023-06-29T04:01:23.905Z,96385.28
2023-06-29T04:03:52.343Z,96386.28
2023-06-29T04:06:28.695Z,96384.03
2023-06-29T04:08:57.026Z,96378.06
2023-06-29T04:11:26.799Z,96378.28
2023-06-29T04:13:55.249Z,96384.44
2023-06-29T04:16:23.694Z,96381.75
2023-06-29T04:18:52.050Z,96380.75
2023-06-29T04:21:20.519Z,96381.13
2023-06-29T04:23:49.011Z,96389.56
2023-06-29T04:26:17.527Z,96392.84
2023-06-29T04:28:48.298Z,96391.22
2023-06-29T04:31:16.860Z,96388.94
2023-06-29T04:33:45.287Z,96392.22
2023-06-29T04:36:14.795Z,96384.44
2023-06-29T04:38:43.241Z,96381.34
2023-06-29T04:41:11.806Z,96385.25
2023-06-29T04:43:40.603Z,96379.31
2023-06-29T04:46:10.596Z,96376.00
2023-06-29T04:48:39.417Z,96378.28
2023-06-29T04:51:08.393Z,96378.69
2023-06-29T04:53:38.009Z,96363.50
2023-06-29T04:56:07.088Z,96381.75
2023-06-29T04:58:35.539Z,96366.97
2023-06-29T05:01:04.483Z,96375.00
2023-06-29T05:03:36.950Z,96378.47
2023-06-29T05:06:05.606Z,96365.53
2023-06-29T05:08:34.122Z,96366.38
2023-06-29T05:11:02.955Z,96367.38
2023-06-29T05:13:31.377Z,96366.38
2023-06-29T05:15:59.852Z,96362.66
2023-06-29T05:18:28.414Z,96365.94
2023-06-29T05:20:58.835Z,96358.53
2023-06-29T05:23:27.451Z,96357.09
2023-06-29T05:25:55.835Z,96359.00
2023-06-29T05:28:24.198Z,96362.69
2023-06-29T05:30:52.618Z,96363.06
2023-06-29T05:33:21.090Z,96353.41
2023-06-29T05:35:54.142Z,96361.44
2023-06-29T05:38:30.755Z,96352.56
2023-06-29T05:41:01.858Z,96363.47
2023-06-29T05:43:31.107Z,96345.78
2023-06-29T05:45:59.657Z,96355.00
2023-06-29T05:48:28.080Z,96350.28
2023-06-29T05:50:56.520Z,96355.59
2023-06-29T05:53:24.925Z,96352.06
2023-06-29T05:55:54.751Z,96347.72
2023-06-29T05:58:24.314Z,96351.84
2023-06-29T06:00:53.176Z,96357.63
2023-06-29T06:03:21.678Z,96357.97
2023-06-29T06:05:50.429Z,96350.34
2023-06-29T06:08:19.015Z,96350.56
2023-06-29T06:10:48.172Z,96353.84
2023-06-29T06:13:18.012Z,96354.84
2023-06-29T06:15:46.492Z,96353.38
2023-06-29T06:18:14.934Z,96355.41
2023-06-29T06:20:43.774Z,96355.59
2023-06-29T06:23:12.327Z,96350.84
2023-06-29T06:25:40.713Z,96350.81
2023-06-29T06:28:09.185Z,96350.38
2023-06-29T06:30:39.564Z,96343.31
2023-06-29T06:33:08.057Z,96341.66
2023-06-29T06:35:42.644Z,96339.97
2023-06-29T06:38:11.060Z,96339.09
2023-06-29T06:40:39.419Z,96339.88
2023-06-29T06:43:07.852Z,96343.34
2023-06-29T06:45:36.254Z,96345.13
2023-06-29T06:48:06.678Z,96332.13
2023-06-29T06:50:35.111Z,96328.78
2023-06-29T06:53:03.481Z,96339.22
2023-06-29T06:55:31.855Z,96338.97
2023-06-29T06:58:00.310Z,96336.00
2023-06-29T07:00:28.964Z,96328.72
2023-06-29T07:02:57.482Z,96335.09
2023-06-29T07:05:27.387Z,96326.59
2023-06-29T07:07:56.085Z,96323.63
2023-06-29T07:10:24.473Z,96328.13
2023-06-29T07:12:52.897Z,96328.72
2023-06-29T07:15:21.324Z,96330.72
2023-06-29T07:17:49.823Z,96327.94
2023-06-29T07:25:22.595Z,96319.00
2023-06-29T07:27:51.207Z,96320.56
2023-06-29T07:30:19.676Z,96320.03
2023-06-29T07:32:48.233Z,96315.78
2023-06-29T07:35:16.865Z,96318.97
2023-06-29T07:37:45.329Z,96316.81
2023-06-29T07:40:15.230Z,96308.41
2023-06-29T07:42:44.217Z,96303.78
2023-06-29T07:45:13.476Z,96301.19
2023-06-29T07:47:44.622Z,96297.13
2023-06-29T07:50:13.117Z,96296.22
2023-06-29T07:52:46.126Z,96299.63
2023-06-29T07:55:15.991Z,96291.44
2023-06-29T08:00:17.285Z,96292.53
2023-06-29T08:02:46.443Z,96300.81
2023-06-29T08:07:47.000Z,96291.38
2023-06-29T08:10:16.946Z,96286.94
2023-06-29T08:12:45.646Z,96287.06
2023-06-29T08:15:14.200Z,96285.31
2023-06-29T08:17:42.688Z,96280.13
2023-06-29T08:20:13.508Z,96276.84
2023-06-29T08:22:44.231Z,96270.63
2023-06-29T08:25:13.470Z,96273.63
2023-06-29T08:27:45.927Z,96269.03
2023-06-29T08:30:14.914Z,96269.78
2023-06-29T08:32:43.591Z,96274.19
2023-06-29T08:35:12.244Z,96262.00
2023-06-29T08:37:41.171Z,96264.16
2023-06-29T08:40:11.304Z,96263.03
2023-06-29T08:42:40.602Z,96265.06
2023-06-29T08:45:11.343Z,96259.13
2023-06-29T08:47:52.718Z,96257.75
2023-06-29T08:50:26.611Z,96257.31
2023-06-29T08:52:58.777Z,96254.03
2023-06-29T08:55:27.703Z,96243.72
2023-06-29T08:57:56.284Z,96244.97
2023-06-29T09:00:29.547Z,96237.91
2023-06-29T09:02:58.726Z,96235.06
2023-06-29T09:05:30.804Z,96234.09
2023-06-29T09:07:59.365Z,96230.94
2023-06-29T09:10:27.889Z,96233.19
2023-06-29T09:12:56.981Z,96227.38
2023-06-29T09:15:29.842Z,96215.91
2023-06-29T09:17:58.684Z,96218.75
2023-06-29T09:20:28.834Z,96212.59
2023-06-29T09:22:57.430Z,96206.16
2023-06-29T09:25:34.515Z,96202.19
2023-06-29T09:28:05.295Z,96191.16
2023-06-29T09:30:39.968Z,96184.44
2023-06-29T09:33:10.664Z,96192.63
2023-06-29T09:35:40.813Z,96192.94
2023-06-29T09:38:09.537Z,96198.47
2023-06-29T09:40:49.247Z,96195.56
2023-06-29T09:43:19.088Z,96192.59
2023-06-29T09:45:49.225Z,96187.19
2023-06-29T09:50:53.280Z,96186.44
2023-06-29T09:53:30.664Z,96178.34
2023-06-29T09:56:00.581Z,96177.81
2023-06-29T09:58:30.214Z,96165.94
2023-06-29T10:01:01.793Z,96171.38
2023-06-29T10:03:32.514Z,96170.34
2023-06-29T10:06:07.077Z,96159.84
2023-06-29T10:08:37.877Z,96164.47
2023-06-29T10:11:07.250Z,96161.75
2023-06-29T10:13:39.499Z,96157.16
2023-06-29T10:16:12.643Z,96153.13
2023-06-29T10:18:43.849Z,96154.47
2023-06-29T10:21:12.613Z,96151.25
2023-06-29T10:23:45.243Z,96152.88
2023-06-29T10:26:14.949Z,96148.53
2023-06-29T10:28:43.974Z,96154.75
2023-06-29T10:31:20.226Z,96146.59
2023-06-29T10:33:49.350Z,96142.53
2023-06-29T10:36:19.132Z,96138.69
2023-06-29T10:38:47.718Z,96134.66
2023-06-29T10:41:29.362Z,96125.66
2023-06-29T10:43:59.877Z,96135.41
2023-06-29T10:46:48.110Z,96126.97
2023-06-29T10:49:23.618Z,96122.34
2023-06-29T10:51:54.211Z,96118.78
2023-06-29T10:54:26.238Z,96117.72
2023-06-29T10:57:01.180Z,96125.00
2023-06-29T10:59:30.804Z,96115.75
2023-06-29T11:02:01.385Z,96117.03
2023-06-29T11:04:30.272Z,96110.75
2023-06-29T11:07:06.009Z,96110.69
2023-06-29T11:09:35.469Z,96102.47
2023-06-29T11:12:04.354Z,96105.72
2023-06-29T11:14:39.025Z,96105.13
2023-06-29T11:17:10.240Z,96093.41
2023-06-29T11:19:45.156Z,96092.88
2023-06-29T11:22:13.760Z,96105.59
2023-06-29T11:24:43.777Z,96094.47
2023-06-29T11:27:22.275Z,96099.03
2023-06-29T11:29:55.761Z,96089.53
2023-06-29T11:32:27.396Z,96090.34
2023-06-29T11:34:59.365Z,96089.69
2023-06-29T11:37:27.920Z,96087.47
2023-06-29T11:39:56.601Z,96084.38
2023-06-29T11:42:26.634Z,96077.22
2023-06-29T11:45:03.844Z,96077.94
2023-06-29T11:47:38.527Z,96076.81
2023-06-29T11:50:11.132Z,96072.34
2023-06-29T11:52:49.862Z,96072.56
2023-06-29T11:55:20.498Z,96072.47
2023-06-29T11:57:53.463Z,96063.69
2023-06-29T12:00:31.592Z,96063.84
2023-06-29T12:03:10.689Z,96058.28
2023-06-29T12:05:43.943Z,96053.94
2023-06-29T12:08:12.720Z,96055.78
2023-06-29T12:10:41.595Z,96046.38
2023-06-29T12:13:12.870Z,96044.59
2023-06-29T12:18:19.031Z,96041.94
2023-06-29T12:20:49.126Z,96039.03
2023-06-29T12:23:17.957Z,96040.56
2023-06-29T12:25:48.682Z,96029.78
2023-06-29T12:28:17.443Z,96026.31
2023-06-29T12:30:46.248Z,96029.25
2023-06-29T12:33:15.723Z,96015.53
2023-06-29T12:35:47.048Z,96011.53
2023-06-29T12:38:15.659Z,96017.44
2023-06-29T12:40:44.191Z,96020.88
2023-06-29T12:43:12.662Z,96015.31
2023-06-29T12:45:41.615Z,96020.91
2023-06-29T12:48:10.206Z,96007.72
2023-06-29T12:50:38.648Z,96007.53
2023-06-29T12:53:08.487Z,96004.19
2023-06-29T12:55:37.317Z,96001.19
2023-06-29T12:58:05.797Z,96001.38
2023-06-29T13:00:34.289Z,96004.75
2023-06-29T13:03:08.737Z,95994.72
2023-06-29T13:05:37.422Z,95999.09
2023-06-29T13:08:06.276Z,95999.16
2023-06-29T13:10:36.525Z,95985.94
2023-06-29T13:13:06.537Z,96002.03
2023-06-29T13:15:35.194Z,95991.59
2023-06-29T13:18:03.615Z,95994.16
2023-06-29T13:20:32.123Z,95998.09
2023-06-29T13:23:10.442Z,95990.31
2023-06-29T13:25:40.851Z,95982.81
2023-06-29T13:28:09.252Z,95989.28
2023-06-29T13:30:38.386Z,95979.66
2023-06-29T13:33:06.921Z,95977.44
2023-06-29T13:35:35.333Z,95979.56
2023-06-29T13:38:03.725Z,95971.66
2023-06-29T13:40:32.459Z,95976.00
2023-06-29T13:43:02.262Z,95961.75
2023-06-29T13:45:30.804Z,95969.13
2023-06-29T13:48:04.002Z,95963.38
2023-06-29T13:50:41.275Z,95965.97
2023-06-29T13:53:10.682Z,95962.84
2023-06-29T13:55:39.253Z,95968.50
2023-06-29T13:58:09.028Z,95960.59
2023-06-29T14:00:37.965Z,95961.91
2023-06-29T14:03:07.521Z,95958.22
2023-06-29T14:05:36.101Z,95959.28
2023-06-29T14:08:04.931Z,95956.72
2023-06-29T14:10:33.360Z,95956.13
2023-06-29T14:13:01.878Z,95958.84
2023-06-29T14:15:32.530Z,95953.63
2023-06-29T14:18:01.144Z,95958.88
2023-06-29T14:20:29.638Z,95953.44
2023-06-29T14:22:58.366Z,95951.38
2023-06-29T14:25:26.940Z,95952.25
2023-06-29T14:27:55.595Z,95949.28
2023-06-29T14:30:24.062Z,95944.97
2023-06-29T14:32:54.128Z,95941.28
2023-06-29T14:35:31.312Z,95939.38
2023-06-29T14:38:13.154Z,95934.50
2023-06-29T14:40:42.415Z,95943.31
2023-06-29T14:43:11.994Z,95942.63
2023-06-29T14:45:40.607Z,95939.78
2023-06-29T14:48:10.566Z,95934.84
2023-06-29T14:50:39.235Z,95933.47
2023-06-29T14:53:07.696Z,95931.91
2023-06-29T14:55:36.216Z,95927.78
2023-06-29T14:58:05.675Z,95930.94
2023-06-29T15:00:34.618Z,95934.28
2023-06-29T15:03:14.523Z,95921.63
2023-06-29T15:05:43.279Z,95927.53
2023-06-29T15:08:11.996Z,95918.19
2023-06-29T15:10:40.468Z,95916.25
2023-06-29T15:13:09.218Z,95921.97
2023-06-29T15:15:37.630Z,95910.66
2023-06-29T15:18:06.381Z,95913.34
2023-06-29T15:20:36.822Z,95904.44
2023-06-29T15:23:05.286Z,95914.97
2023-06-29T15:25:34.050Z,95909.56
2023-06-29T15:28:02.610Z,95910.59
2023-06-29T15:30:33.206Z,95919.19
2023-06-29T15:33:05.235Z,95910.66
2023-06-29T15:35:34.730Z,95908.22
2023-06-29T15:38:04.620Z,95908.13
2023-06-29T15:40:33.985Z,95905.44
2023-06-29T15:43:02.518Z,95896.22
2023-06-29T15:45:30.953Z,95894.88
2023-06-29T15:47:59.573Z,95902.31
2023-06-29T15:50:28.121Z,95899.28
2023-06-29T15:52:56.543Z,95895.75
2023-06-29T15:55:26.345Z,95893.13
2023-06-29T15:57:54.781Z,95889.50
2023-06-29T16:00:23.890Z,95889.94
2023-06-29T16:02:52.424Z,95894.72
2023-06-29T16:05:21.043Z,95882.31
2023-06-29T16:07:49.495Z,95884.53
2023-06-29T16:10:18.038Z,95879.69
2023-06-29T16:12:48.119Z,95885.59
2023-06-29T16:15:17.575Z,95895.66
2023-06-29T16:17:46.010Z,95880.91
2023-06-29T16:20:14.533Z,95880.72
2023-06-29T16:22:43.196Z,95884.97
2023-06-29T16:25:11.695Z,95881.53
2023-06-29T16:27:40.080Z,95882.31
2023-06-29T16:30:10.781Z,95883.88
2023-06-29T16:32:49.322Z,95885.19
2023-06-29T16:35:18.050Z,95883.06
2023-06-29T16:37:47.655Z,95885.06
2023-06-29T16:40:16.148Z,95880.09
2023-06-29T16:42:44.558Z,95881.97
2023-06-29T16:45:14.606Z,95878.94
2023-06-29T16:47:43.087Z,95879.78
2023-06-29T16:50:12.082Z,95878.09
2023-06-29T16:52:40.560Z,95881.84
2023-06-29T16:55:09.837Z,95877.13
2023-06-29T16:57:38.283Z,95881.66
2023-06-29T17:00:09.476Z,95877.72
2023-06-29T17:02:39.491Z,95877.09
2023-06-29T17:05:09.423Z,95879.13
2023-06-29T17:07:38.147Z,95874.69
2023-06-29T17:10:07.731Z,95881.38
2023-06-29T17:12:36.247Z,95876.94
2023-06-29T17:15:05.126Z,95879.25
2023-06-29T17:17:33.661Z,95879.13
2023-06-29T17:20:03.978Z,95867.00
2023-06-29T17:22:32.461Z,95882.66
2023-06-29T17:25:00.887Z,95880.94
2023-06-29T17:27:29.370Z,95879.72
2023-06-29T17:29:57.776Z,95876.91
2023-06-29T17:32:26.309Z,95879.31
2023-06-29T17:34:55.118Z,95881.94
2023-06-29T17:37:24.946Z,95878.19
2023-06-29T17:39:53.380Z,95880.41
2023-06-29T17:42:23.316Z,95872.59
2023-06-29T17:44:51.797Z,95878.78
2023-06-29T17:47:20.452Z,95876.06
2023-06-29T17:49:49.900Z,95881.22
2023-06-29T17:52:18.361Z,95872.25
2023-06-29T17:54:49.568Z,95878.47
2023-06-29T17:57:18.382Z,95876.47
2023-06-29T17:59:46.921Z,95882.69
2023-06-29T18:02:15.520Z,95884.75
2023-06-29T18:04:44.055Z,95878.69
2023-06-29T18:07:12.969Z,95870.34
2023-06-29T18:09:41.562Z,95872.91
2023-06-29T18:12:11.772Z,95866.53
2023-06-29T18:14:40.503Z,95874.22
2023-06-29T18:17:08.984Z,95871.38
2023-06-29T18:19:37.437Z,95879.59
2023-06-29T18:22:08.303Z,95876.44
2023-06-29T18:24:37.082Z,95884.97
2023-06-29T18:27:06.067Z,95879.06
2023-06-29T18:29:37.361Z,95876.19
2023-06-29T18:32:06.879Z,95876.50
2023-06-29T18:34:35.339Z,95880.09
2023-06-29T18:37:03.972Z,95888.91
2023-06-29T18:39:32.600Z,95883.78
2023-06-29T18:42:01.011Z,95883.59
2023-06-29T18:44:29.483Z,95884.72
2023-06-29T18:47:09.392Z,95878.00
2023-06-29T18:49:50.600Z,95885.72
2023-06-29T18:52:21.319Z,95885.50
2023-06-29T18:54:51.703Z,95889.91
2023-06-29T18:57:20.143Z,95884.28
2023-06-29T18:59:48.622Z,95881.69
2023-06-29T19:02:18.526Z,95876.28
2023-06-29T19:04:46.990Z,95880.16
2023-06-29T19:07:17.172Z,95886.72
2023-06-29T19:09:51.897Z,95877.53
2023-06-29T19:12:20.368Z,95886.25
2023-06-29T19:14:48.808Z,95884.16
2023-06-29T19:17:18.606Z,95879.59
2023-06-29T19:19:47.084Z,95883.41
2023-06-29T19:22:15.562Z,95884.50
2023-06-29T19:24:44.027Z,95890.78
2023-06-29T19:27:12.538Z,95895.69
2023-06-29T19:29:41.355Z,95903.34
2023-06-29T19:32:11.298Z,95895.22
2023-06-29T19:34:41.294Z,95907.22
2023-06-29T19:37:10.869Z,95920.88
2023-06-29T19:39:40.609Z,95920.09
2023-06-29T19:42:10.457Z,95928.00
2023-06-29T19:44:38.828Z,95926.38
2023-06-29T19:47:07.420Z,95933.97
2023-06-29T19:49:36.007Z,95929.38
2023-06-29T19:52:07.021Z,95937.75
2023-06-29T19:54:35.421Z,95935.31
2023-06-29T19:57:04.004Z,95935.88
2023-06-29T19:59:32.436Z,95938.03
2023-06-29T20:02:01.477Z,95936.41
2023-06-29T20:04:30.065Z,95946.97
2023-06-29T20:06:58.523Z,95940.75
2023-06-29T20:09:28.334Z,95942.91
2023-06-29T20:11:56.741Z,95949.94
2023-06-29T20:14:25.646Z,95941.00
2023-06-29T20:16:54.871Z,95938.84
2023-06-29T20:19:23.846Z,95938.84
2023-06-29T20:21:54.022Z,95943.69
2023-06-29T20:24:22.437Z,95939.56
2023-06-29T20:26:52.238Z,95939.25
2023-06-29T20:29:20.685Z,95943.00
2023-06-29T20:31:49.315Z,95947.31
2023-06-29T20:34:17.875Z,95941.63
2023-06-29T20:36:46.362Z,95941.38
2023-06-29T20:39:14.955Z,95945.16
2023-06-29T20:41:43.422Z,95948.91
2023-06-29T20:44:15.349Z,95945.06
2023-06-29T20:46:44.179Z,95939.09
2023-06-29T20:49:12.661Z,95941.75
2023-06-29T20:51:41.412Z,95944.09
2023-06-29T20:54:09.821Z,95941.91
2023-06-29T20:56:38.255Z,95942.16
2023-06-29T20:59:06.708Z,95955.84
2023-06-29T21:01:36.534Z,95951.00
2023-06-29T21:04:05.189Z,95970.81
2023-06-29T21:06:34.947Z,95960.59
2023-06-29T21:09:03.522Z,95954.09
2023-06-29T21:11:33.024Z,95960.50
2023-06-29T21:14:01.792Z,95959.44
2023-06-29T21:16:30.420Z,95955.66
2023-06-29T21:19:00.769Z,95958.03
2023-06-29T21:21:29.855Z,95961.78
2023-06-29T21:23:58.719Z,95960.69
2023-06-29T21:26:27.859Z,95961.16
2023-06-29T21:28:59.385Z,95970.53
2023-06-29T21:31:28.272Z,95961.38
2023-06-29T21:33:57.282Z,95956.25
2023-06-29T21:36:28.220Z,95958.63
2023-06-29T21:38:57.174Z,95962.94
2023-06-29T21:41:25.593Z,95959.13
2023-06-29T21:43:54.040Z,95964.47
2023-06-29T21:46:22.484Z,95969.59
2023-06-29T21:48:50.961Z,95966.19
2023-06-29T21:51:19.448Z,95965.81
2023-06-29T21:53:49.381Z,95962.78
2023-06-29T21:56:25.867Z,95962.22
2023-06-29T21:58:55.412Z,95966.59
2023-06-29T22:01:24.112Z,95963.06
2023-06-29T22:03:52.802Z,95975.47
2023-06-29T22:06:21.453Z,95973.25
2023-06-29T22:08:51.214Z,95967.56
2023-06-29T22:11:20.976Z,95967.00
2023-06-29T22:13:50.560Z,95965.88
2023-06-29T22:16:21.560Z,95960.97
2023-06-29T22:18:51.966Z,95966.06
2023-06-29T22:21:22.880Z,95955.25
2023-06-29T22:23:54.227Z,95959.38
2023-06-29T22:26:26.774Z,95964.78
2023-06-29T22:28:55.254Z,95965.66
2023-06-29T22:31:23.833Z,95968.97
2023-06-29T22:33:52.330Z,95951.75
2023-06-29T22:36:20.821Z,95967.69
2023-06-29T22:38:49.217Z,95970.59
2023-06-29T22:41:19.007Z,95967.81
2023-06-29T22:43:47.367Z,95970.84
2023-06-29T22:46:15.792Z,95977.44
2023-06-29T22:48:48.146Z,95974.34
2023-06-29T22:51:16.870Z,95982.88
2023-06-29T22:53:45.254Z,95977.91
2023-06-29T22:56:13.732Z,95987.25
2023-06-29T22:58:43.714Z,95980.97
2023-06-29T23:01:12.315Z,95985.00
2023-06-29T23:03:40.788Z,95980.41
2023-06-29T23:06:09.251Z,95982.88
2023-06-29T23:08:37.620Z,95984.25
2023-06-29T23:11:06.073Z,95981.53
2023-06-29T23:13:41.202Z,95977.81
2023-06-29T23:16:11.176Z,95974.34
2023-06-29T23:18:39.646Z,95982.22
2023-06-29T23:21:08.205Z,95990.91
2023-06-29T23:23:36.586Z,95995.28
2023-06-29T23:26:07.499Z,95986.13
2023-06-29T23:28:37.306Z,95987.75
2023-06-29T23:31:06.316Z,95988.81
2023-06-29T23:33:36.248Z,95985.25
2023-06-29T23:36:04.896Z,95981.66
2023-06-29T23:38:33.279Z,95996.13
2023-06-29T23:41:02.259Z,95994.44
2023-06-29T23:43:30.747Z,95993.31
2023-06-29T23:45:59.116Z,95995.38
2023-06-29T23:48:27.497Z,95992.88
2023-06-29T23:50:57.294Z,95989.97
2023-06-29T23:53:25.696Z,95999.19
2023-06-29T23:55:54.058Z,95992.31
2023-06-29T23:58:22.778Z,95997.28
